createdAt,value
2022-08-29T00:00:51.138Z,100.00
2022-08-29T00:03:21.458Z,96.75
2022-08-29T00:05:51.503Z,94.11
2022-08-29T00:08:21.295Z,97.82
2022-08-29T00:10:50.156Z,100.00
2022-08-29T00:16:35.937Z,96.56
2022-08-29T00:19:06.315Z,98.90
2022-08-29T00:21:35.072Z,100.00
2022-08-29T00:24:04.444Z,100.00
2022-08-29T00:26:33.320Z,100.00
2022-08-29T00:29:02.215Z,100.00
2022-08-29T00:31:30.953Z,100.00
2022-08-29T00:33:59.855Z,100.00
2022-08-29T00:36:30.618Z,100.00
2022-08-29T00:38:59.892Z,100.00
2022-08-29T00:41:28.754Z,100.00
2022-08-29T00:43:57.646Z,100.00
2022-08-29T00:46:53.163Z,100.00
2022-08-29T00:49:36.838Z,100.00
2022-08-29T00:52:19.320Z,100.00
2022-08-29T00:54:54.945Z,100.00
2022-08-29T00:57:27.736Z,100.00
2022-08-29T00:59:57.017Z,100.00
2022-08-29T01:02:26.504Z,100.00
2022-08-29T01:04:55.423Z,100.00
2022-08-29T01:07:25.841Z,100.00
2022-08-29T01:09:55.401Z,100.00
2022-08-29T01:12:23.994Z,100.00
2022-08-29T01:14:55.530Z,100.00
2022-08-29T01:17:31.083Z,100.00
2022-08-29T01:20:12.219Z,100.00
2022-08-29T01:23:01.142Z,100.00
2022-08-29T01:25:37.358Z,100.00
2022-08-29T01:28:14.743Z,100.00
2022-08-29T01:31:01.453Z,100.00
2022-08-29T01:33:44.715Z,100.00
2022-08-29T01:36:19.341Z,100.00
2022-08-29T01:38:48.077Z,100.00
2022-08-29T01:41:22.812Z,100.00
2022-08-29T01:43:55.091Z,100.00
2022-08-29T01:46:27.666Z,100.00
2022-08-29T01:48:56.967Z,100.00
2022-08-29T01:51:26.261Z,100.00
2022-08-29T01:53:55.423Z,100.00
2022-08-29T01:56:28.793Z,100.00
2022-08-29T01:59:00.906Z,100.00
2022-08-29T02:01:37.129Z,100.00
2022-08-29T02:04:08.329Z,100.00
2022-08-29T02:06:38.440Z,100.00
2022-08-29T02:09:08.204Z,100.00
2022-08-29T02:11:41.556Z,100.00
2022-08-29T02:14:19.024Z,100.00
2022-08-29T02:16:48.963Z,100.00
2022-08-29T02:19:19.236Z,100.00
2022-08-29T02:21:48.195Z,100.00
2022-08-29T02:24:26.340Z,100.00
2022-08-29T02:26:58.783Z,100.00
2022-08-29T02:29:37.030Z,100.00
2022-08-29T02:32:09.043Z,100.00
2022-08-29T02:34:38.903Z,100.00
2022-08-29T02:37:08.293Z,100.00
2022-08-29T02:39:36.945Z,100.00
2022-08-29T02:42:07.693Z,100.00
2022-08-29T02:44:36.525Z,100.00
2022-08-29T02:47:05.541Z,100.00
2022-08-29T02:49:34.521Z,100.00
2022-08-29T02:52:06.668Z,100.00
2022-08-29T02:54:35.874Z,100.00
2022-08-29T02:57:07.032Z,100.00
2022-08-29T02:59:35.981Z,100.00
2022-08-29T03:02:05.157Z,100.00
2022-08-29T03:04:34.280Z,100.00
2022-08-29T03:07:02.961Z,100.00
2022-08-29T03:09:31.632Z,100.00
2022-08-29T03:12:00.534Z,100.00
2022-08-29T03:14:30.613Z,100.00
2022-08-29T03:16:59.283Z,100.00
2022-08-29T03:19:28.263Z,100.00
2022-08-29T03:21:57.074Z,100.00
2022-08-29T03:24:26.991Z,100.00
2022-08-29T03:26:57.176Z,100.00
2022-08-29T03:29:27.706Z,100.00
2022-08-29T03:31:58.778Z,100.00
2022-08-29T03:34:28.784Z,100.00
2022-08-29T03:36:58.252Z,100.00
2022-08-29T03:39:27.473Z,100.00
2022-08-29T03:41:56.801Z,100.00
2022-08-29T03:44:26.188Z,100.00
2022-08-29T03:46:58.501Z,100.00
2022-08-29T03:49:27.587Z,100.00
2022-08-29T03:51:56.502Z,100.00
2022-08-29T03:54:25.287Z,100.00
2022-08-29T03:56:55.673Z,100.00
2022-08-29T03:59:24.758Z,100.00
2022-08-29T04:01:53.423Z,100.00
2022-08-29T04:04:41.298Z,100.00
2022-08-29T04:07:13.246Z,100.00
2022-08-29T04:09:43.121Z,100.00
2022-08-29T04:12:13.774Z,100.00
2022-08-29T04:14:43.004Z,100.00
2022-08-29T04:17:12.401Z,100.00
2022-08-29T04:19:42.354Z,100.00
2022-08-29T04:22:11.205Z,100.00
2022-08-29T04:24:39.798Z,100.00
2022-08-29T04:27:08.602Z,100.00
2022-08-29T04:29:38.331Z,99.85
2022-08-29T04:32:07.273Z,100.00
2022-08-29T04:34:35.922Z,100.00
2022-08-29T04:37:06.116Z,100.00
2022-08-29T04:39:35.919Z,100.00
2022-08-29T04:42:05.092Z,100.00
2022-08-29T04:44:34.553Z,100.00
2022-08-29T04:47:03.148Z,100.00
2022-08-29T04:49:31.815Z,100.00
2022-08-29T04:52:00.651Z,100.00
2022-08-29T04:54:30.660Z,100.00
2022-08-29T04:57:03.618Z,100.00
2022-08-29T04:59:34.789Z,100.00
2022-08-29T05:02:03.836Z,100.00
2022-08-29T05:04:32.555Z,100.00
2022-08-29T05:07:01.364Z,100.00
2022-08-29T05:09:32.051Z,99.21
2022-08-29T05:12:00.669Z,100.00
2022-08-29T05:14:29.505Z,99.77
2022-08-29T05:16:58.261Z,98.91
2022-08-29T05:19:26.982Z,99.86
2022-08-29T05:22:03.237Z,97.03
2022-08-29T05:24:37.264Z,98.20
2022-08-29T05:27:10.048Z,100.00
2022-08-29T05:29:41.200Z,100.00
2022-08-29T05:32:12.447Z,100.00
2022-08-29T05:34:42.955Z,99.59
2022-08-29T05:37:16.896Z,99.38
2022-08-29T05:39:48.381Z,100.00
2022-08-29T05:42:22.115Z,99.65
2022-08-29T05:44:52.456Z,100.00
2022-08-29T05:47:22.885Z,100.00
2022-08-29T05:49:51.946Z,100.00
2022-08-29T05:52:22.105Z,98.53
2022-08-29T05:54:52.473Z,100.00
2022-08-29T05:57:24.702Z,100.00
2022-08-29T05:59:55.199Z,100.00
2022-08-29T06:02:25.386Z,99.85
2022-08-29T06:04:54.253Z,97.77
2022-08-29T06:07:23.412Z,97.94
2022-08-29T06:09:53.895Z,95.64
2022-08-29T06:12:27.241Z,96.20
2022-08-29T06:14:55.859Z,98.92
2022-08-29T06:17:42.889Z,99.30
2022-08-29T06:20:13.169Z,100.00
2022-08-29T06:22:42.591Z,93.97
2022-08-29T06:25:37.293Z,92.30
2022-08-29T06:28:01.724Z,93.36
2022-08-29T06:30:34.368Z,89.86
2022-08-29T06:33:04.146Z,92.74
2022-08-29T06:35:32.755Z,94.46
2022-08-29T06:38:01.345Z,90.70
2022-08-29T06:40:31.604Z,91.96
2022-08-29T06:43:00.401Z,88.86
2022-08-29T06:45:29.131Z,87.67
2022-08-29T06:47:57.935Z,89.19
2022-08-29T06:50:28.451Z,88.95
2022-08-29T06:53:05.418Z,89.95
2022-08-29T06:55:44.907Z,90.40
2022-08-29T06:58:15.950Z,87.60
2022-08-29T07:00:49.531Z,88.85
2022-08-29T07:03:19.223Z,91.31
2022-08-29T07:05:53.574Z,90.32
2022-08-29T07:08:23.788Z,83.12
2022-08-29T07:10:54.010Z,81.88
2022-08-29T07:13:22.781Z,89.03
2022-08-29T07:15:52.108Z,89.45
2022-08-29T07:18:21.569Z,88.37
2022-08-29T07:20:50.719Z,87.94
2022-08-29T07:23:19.301Z,87.66
2022-08-29T07:25:48.314Z,84.92
2022-08-29T07:28:18.446Z,86.61
2022-08-29T07:30:47.107Z,89.30
2022-08-29T07:33:16.223Z,86.72
2022-08-29T07:35:45.058Z,82.99
2022-08-29T07:38:13.814Z,79.94
2022-08-29T07:40:43.275Z,79.30
2022-08-29T07:43:15.435Z,78.04
2022-08-29T07:45:48.123Z,80.41
2022-08-29T07:48:21.090Z,80.77
2022-08-29T07:50:51.716Z,80.44
2022-08-29T07:53:20.968Z,82.52
2022-08-29T07:55:49.552Z,83.93
2022-08-29T07:58:18.368Z,86.54
2022-08-29T08:00:48.314Z,86.95
2022-08-29T08:03:16.997Z,83.57
2022-08-29T08:05:45.819Z,83.45
2022-08-29T08:08:15.614Z,85.10
2022-08-29T08:10:47.840Z,85.96
2022-08-29T08:13:20.089Z,87.09
2022-08-29T08:15:50.215Z,84.72
2022-08-29T08:18:18.836Z,84.59
2022-08-29T08:20:48.506Z,86.65
2022-08-29T08:23:17.903Z,83.21
2022-08-29T08:25:46.815Z,83.60
2022-08-29T08:28:17.259Z,85.75
2022-08-29T08:30:46.161Z,85.00
2022-08-29T08:33:16.721Z,86.49
2022-08-29T08:35:46.962Z,83.80
2022-08-29T08:38:16.997Z,85.46
2022-08-29T08:41:04.460Z,81.98
2022-08-29T08:43:53.411Z,83.94
2022-08-29T08:46:33.301Z,82.64
2022-08-29T08:49:10.444Z,82.01
2022-08-29T08:51:44.396Z,81.49
2022-08-29T08:54:21.241Z,80.26
2022-08-29T08:57:01.363Z,78.19
2022-08-29T08:59:39.536Z,74.84
2022-08-29T09:02:35.471Z,62.76
2022-08-29T09:05:29.643Z,63.40
2022-08-29T09:08:11.037Z,60.20
2022-08-29T09:10:49.709Z,60.98
2022-08-29T09:13:38.621Z,56.23
2022-08-29T09:16:18.123Z,55.04
2022-08-29T09:18:52.671Z,51.97
2022-08-29T09:21:41.670Z,47.34
2022-08-29T09:24:22.051Z,46.48
2022-08-29T09:26:50.711Z,48.25
2022-08-29T09:29:21.101Z,50.27
2022-08-29T09:32:12.085Z,49.81
2022-08-29T09:37:36.880Z,52.85
2022-08-29T09:40:11.421Z,48.92
2022-08-29T09:42:44.557Z,51.89
2022-08-29T09:45:20.591Z,52.75
2022-08-29T09:47:49.295Z,49.97
2022-08-29T09:50:24.819Z,48.58
2022-08-29T09:52:59.573Z,48.34
2022-08-29T09:55:35.122Z,50.38
2022-08-29T09:58:07.927Z,44.36
2022-08-29T10:00:40.398Z,43.14
2022-08-29T10:03:22.423Z,42.06
2022-08-29T10:06:09.365Z,39.82
2022-08-29T10:08:43.796Z,39.95
2022-08-29T10:11:34.164Z,38.03
2022-08-29T10:14:09.786Z,39.92
2022-08-29T10:16:52.721Z,39.50
2022-08-29T10:19:32.975Z,41.00
2022-08-29T10:22:18.891Z,41.04
2022-08-29T10:25:01.616Z,41.11
2022-08-29T10:27:43.752Z,39.66
2022-08-29T10:30:17.324Z,41.85
2022-08-29T10:33:10.506Z,42.70
2022-08-29T10:35:53.705Z,42.89
2022-08-29T10:38:45.231Z,41.80
2022-08-29T10:41:32.630Z,42.57
2022-08-29T10:44:26.323Z,41.20
2022-08-29T10:47:22.662Z,40.12
2022-08-29T10:50:21.861Z,41.92
2022-08-29T10:53:11.534Z,44.13
2022-08-29T10:55:51.036Z,44.25
2022-08-29T10:58:47.500Z,44.29
2022-08-29T11:01:28.449Z,43.48
2022-08-29T11:04:17.325Z,45.21
2022-08-29T11:06:56.965Z,45.01
2022-08-29T11:09:32.545Z,45.63
2022-08-29T11:12:11.021Z,46.18
2022-08-29T11:14:57.624Z,45.50
2022-08-29T11:17:35.905Z,48.52
2022-08-29T11:20:13.688Z,48.01
2022-08-29T11:22:50.051Z,49.07
2022-08-29T11:25:21.907Z,48.25
2022-08-29T11:28:04.126Z,48.64
2022-08-29T11:30:47.933Z,47.31
2022-08-29T11:33:33.304Z,46.70
2022-08-29T11:36:33.687Z,47.01
2022-08-29T11:39:47.410Z,47.38
2022-08-29T11:45:22.658Z,47.03
2022-08-29T11:48:19.464Z,45.61
2022-08-29T11:50:49.439Z,45.35
2022-08-29T11:53:34.112Z,46.13
2022-08-29T11:56:28.506Z,45.80
2022-08-29T11:59:00.159Z,44.51
2022-08-29T12:02:00.680Z,45.01
2022-08-29T12:04:56.954Z,46.71
2022-08-29T12:07:37.507Z,49.07
2022-08-29T12:10:12.039Z,47.51
2022-08-29T12:12:46.242Z,46.42
2022-08-29T12:16:08.536Z,46.73
2022-08-29T12:18:48.907Z,46.86
2022-08-29T12:21:47.167Z,48.20
2022-08-29T12:24:43.095Z,45.45
2022-08-29T12:28:05.995Z,45.17
2022-08-29T12:30:41.721Z,47.01
2022-08-29T12:33:28.831Z,44.42
2022-08-29T12:36:26.031Z,44.82
2022-08-29T12:39:19.449Z,45.22
2022-08-29T12:42:18.456Z,44.52
2022-08-29T12:45:00.579Z,44.80
2022-08-29T12:47:36.919Z,44.81
2022-08-29T12:50:15.496Z,44.62
2022-08-29T12:52:44.534Z,44.12
2022-08-29T12:55:27.659Z,44.39
2022-08-29T12:57:59.141Z,43.67
2022-08-29T13:00:32.337Z,46.56
2022-08-29T13:03:09.485Z,42.99
2022-08-29T13:05:44.865Z,42.63
2022-08-29T13:08:17.916Z,43.76
2022-08-29T13:10:56.478Z,44.05
2022-08-29T13:13:27.606Z,41.95
2022-08-29T13:16:02.260Z,42.17
2022-08-29T13:18:44.313Z,41.97
2022-08-29T13:21:25.774Z,42.40
2022-08-29T13:24:05.492Z,41.72
2022-08-29T13:26:35.742Z,43.06
2022-08-29T13:29:27.955Z,42.71
2022-08-29T13:32:24.092Z,43.17
2022-08-29T13:35:18.032Z,42.77
2022-08-29T13:38:08.209Z,42.51
2022-08-29T13:40:44.657Z,43.26
2022-08-29T13:43:34.253Z,43.19
2022-08-29T13:46:15.448Z,43.24
2022-08-29T13:48:46.329Z,41.68
2022-08-29T13:51:15.529Z,42.16
2022-08-29T13:53:45.521Z,40.31
2022-08-29T13:56:27.801Z,41.44
2022-08-29T13:58:59.552Z,41.69
2022-08-29T14:01:29.800Z,40.82
2022-08-29T14:04:15.351Z,37.55
2022-08-29T14:06:50.266Z,38.63
2022-08-29T14:09:25.528Z,38.10
2022-08-29T14:11:54.132Z,40.19
2022-08-29T14:14:23.012Z,38.90
2022-08-29T14:16:53.732Z,38.71
2022-08-29T14:19:24.212Z,39.67
2022-08-29T14:21:54.521Z,41.98
2022-08-29T14:24:27.330Z,41.65
2022-08-29T14:27:01.104Z,40.75
2022-08-29T14:29:31.367Z,40.50
2022-08-29T14:32:02.911Z,41.33
2022-08-29T14:34:33.616Z,43.12
2022-08-29T14:37:03.074Z,41.64
2022-08-29T14:39:31.901Z,41.28
2022-08-29T14:42:00.562Z,42.83
2022-08-29T14:44:29.458Z,41.08
2022-08-29T14:46:58.112Z,40.55
2022-08-29T14:49:27.113Z,41.12
2022-08-29T14:51:57.428Z,41.54
2022-08-29T14:54:26.082Z,41.15
2022-08-29T14:56:54.795Z,40.81
2022-08-29T14:59:25.624Z,41.33
2022-08-29T15:01:55.498Z,42.15
2022-08-29T15:04:36.009Z,42.40
2022-08-29T15:07:13.581Z,43.22
2022-08-29T15:09:44.050Z,42.45
2022-08-29T15:12:14.257Z,42.71
2022-08-29T15:14:43.340Z,42.45
2022-08-29T15:17:13.521Z,43.49
2022-08-29T15:20:31.809Z,41.31
2022-08-29T15:22:32.811Z,43.83
2022-08-29T15:25:01.831Z,43.82
2022-08-29T15:27:32.143Z,42.90
2022-08-29T15:30:01.176Z,42.58
2022-08-29T15:32:39.131Z,43.76
2022-08-29T15:35:15.138Z,42.83
2022-08-29T15:37:44.290Z,44.47
2022-08-29T15:40:15.148Z,42.99
2022-08-29T15:42:45.329Z,42.06
2022-08-29T15:45:14.217Z,43.19
2022-08-29T15:47:46.237Z,43.92
2022-08-29T15:50:16.192Z,46.69
2022-08-29T15:52:45.124Z,44.41
2022-08-29T15:55:14.014Z,44.35
2022-08-29T15:57:51.725Z,42.79
2022-08-29T16:00:29.701Z,42.53
2022-08-29T16:03:02.837Z,43.29
2022-08-29T16:05:33.147Z,44.35
2022-08-29T16:08:03.410Z,44.11
2022-08-29T16:10:33.309Z,43.64
2022-08-29T16:13:02.166Z,43.64
2022-08-29T16:15:31.791Z,44.43
2022-08-29T16:18:03.654Z,45.18
2022-08-29T16:20:32.974Z,44.46
2022-08-29T16:23:02.941Z,44.76
2022-08-29T16:25:33.496Z,45.59
2022-08-29T16:28:06.083Z,48.01
2022-08-29T16:30:44.516Z,46.23
2022-08-29T16:33:16.810Z,45.41
2022-08-29T16:35:45.552Z,45.39
2022-08-29T16:38:14.335Z,45.95
2022-08-29T16:40:43.419Z,47.48
2022-08-29T16:43:12.590Z,48.41
2022-08-29T16:45:41.303Z,45.89
2022-08-29T16:48:10.818Z,47.15
2022-08-29T16:50:46.219Z,48.25
2022-08-29T16:53:15.907Z,47.22
2022-08-29T16:55:44.586Z,48.64
2022-08-29T16:58:30.601Z,50.38
2022-08-29T17:01:00.248Z,48.84
2022-08-29T17:03:29.013Z,49.02
2022-08-29T17:05:59.285Z,47.70
2022-08-29T17:08:26.902Z,50.90
2022-08-29T17:10:54.485Z,50.81
2022-08-29T17:13:23.738Z,49.10
2022-08-29T17:15:52.027Z,52.27
2022-08-29T17:18:20.705Z,55.20
2022-08-29T17:20:49.655Z,56.54
2022-08-29T17:23:20.024Z,55.04
2022-08-29T17:25:48.797Z,56.46
2022-08-29T17:28:18.911Z,59.68
2022-08-29T17:30:48.963Z,60.63
2022-08-29T17:33:18.292Z,58.42
2022-08-29T17:35:48.714Z,62.04
2022-08-29T17:38:19.295Z,63.08
2022-08-29T17:40:49.492Z,63.49
2022-08-29T17:43:20.944Z,64.90
2022-08-29T17:45:50.014Z,64.73
2022-08-29T17:48:19.468Z,65.33
2022-08-29T17:50:48.967Z,67.42
2022-08-29T17:53:20.666Z,65.87
2022-08-29T17:55:51.176Z,67.11
2022-08-29T17:58:22.306Z,68.93
2022-08-29T18:00:52.064Z,69.16
2022-08-29T18:03:20.944Z,69.08
2022-08-29T18:05:49.698Z,69.33
2022-08-29T18:08:19.650Z,69.47
2022-08-29T18:10:48.467Z,68.59
2022-08-29T18:13:21.438Z,69.29
2022-08-29T18:15:52.544Z,70.37
2022-08-29T18:18:22.068Z,70.96
2022-08-29T18:20:51.002Z,70.76
2022-08-29T18:23:21.277Z,71.36
2022-08-29T18:25:49.991Z,69.36
2022-08-29T18:28:19.118Z,71.44
2022-08-29T18:30:48.241Z,72.38
2022-08-29T18:33:17.236Z,72.59
2022-08-29T18:35:46.170Z,73.06
2022-08-29T18:38:15.834Z,73.25
2022-08-29T18:40:46.721Z,74.23
2022-08-29T18:43:20.104Z,73.94
2022-08-29T18:45:49.099Z,75.09
2022-08-29T18:48:18.254Z,74.38
2022-08-29T18:50:48.515Z,74.93
2022-08-29T18:53:21.344Z,75.35
2022-08-29T18:55:52.764Z,76.64
2022-08-29T18:58:22.934Z,76.41
2022-08-29T19:00:52.407Z,76.17
2022-08-29T19:03:22.589Z,77.45
2022-08-29T19:05:54.025Z,77.13
2022-08-29T19:08:25.647Z,77.75
2022-08-29T19:10:56.245Z,78.43
2022-08-29T19:13:26.557Z,78.92
2022-08-29T19:16:00.723Z,78.35
2022-08-29T19:18:30.546Z,77.04
2022-08-29T19:21:06.568Z,78.35
2022-08-29T19:23:40.983Z,79.08
2022-08-29T19:26:14.388Z,79.20
2022-08-29T19:28:44.645Z,80.08
2022-08-29T19:31:15.132Z,78.66
2022-08-29T19:33:46.177Z,78.59
2022-08-29T19:36:15.427Z,77.75
2022-08-29T19:38:44.883Z,74.52
2022-08-29T19:41:15.503Z,75.83
2022-08-29T19:43:44.596Z,76.32
2022-08-29T19:46:18.319Z,77.26
2022-08-29T19:48:50.975Z,76.98
2022-08-29T19:51:25.174Z,77.94
2022-08-29T19:53:57.115Z,77.80
2022-08-29T19:56:28.564Z,76.14
2022-08-29T19:58:59.652Z,74.16
2022-08-29T20:01:29.239Z,76.23
2022-08-29T20:03:58.190Z,76.41
2022-08-29T20:06:27.096Z,76.18
2022-08-29T20:08:56.854Z,77.71
2022-08-29T20:11:29.798Z,75.52
2022-08-29T20:13:59.363Z,73.99
2022-08-29T20:16:33.864Z,76.05
2022-08-29T20:19:05.303Z,72.09
2022-08-29T20:21:35.253Z,74.55
2022-08-29T20:24:05.441Z,78.18
2022-08-29T20:26:38.001Z,74.99
2022-08-29T20:29:11.142Z,78.35
2022-08-29T20:31:41.133Z,80.03
2022-08-29T20:34:11.082Z,80.17
2022-08-29T20:36:57.220Z,76.11
2022-08-29T20:39:26.837Z,80.04
2022-08-29T20:42:00.271Z,82.30
2022-08-29T20:44:34.379Z,79.53
2022-08-29T20:47:04.173Z,76.65
2022-08-29T20:49:33.805Z,78.29
2022-08-29T20:52:04.330Z,80.87
2022-08-29T20:54:35.339Z,79.57
2022-08-29T20:57:07.417Z,81.68
2022-08-29T20:59:39.467Z,81.78
2022-08-29T21:02:10.535Z,76.99
2022-08-29T21:04:56.702Z,79.93
2022-08-29T21:07:25.924Z,81.75
2022-08-29T21:09:55.865Z,80.38
2022-08-29T21:12:27.620Z,77.90
2022-08-29T21:14:56.551Z,79.23
2022-08-29T21:17:25.230Z,78.17
2022-08-29T21:19:54.613Z,80.04
2022-08-29T21:22:25.213Z,79.84
2022-08-29T21:24:56.446Z,79.07
2022-08-29T21:27:26.728Z,77.41
2022-08-29T21:29:56.652Z,76.10
2022-08-29T21:32:25.986Z,77.95
2022-08-29T21:34:54.588Z,78.12
2022-08-29T21:37:23.260Z,80.63
2022-08-29T21:39:52.111Z,80.43
2022-08-29T21:42:20.744Z,79.08
2022-08-29T21:44:50.688Z,78.49
2022-08-29T21:47:19.524Z,80.46
2022-08-29T21:49:51.621Z,80.28
2022-08-29T21:52:21.520Z,79.51
2022-08-29T21:54:53.901Z,83.70
2022-08-29T21:57:40.846Z,79.67
2022-08-29T22:00:14.521Z,81.48
2022-08-29T22:02:44.503Z,82.92
2022-08-29T22:05:14.072Z,82.87
2022-08-29T22:07:44.219Z,83.57
2022-08-29T22:10:17.730Z,86.60
2022-08-29T22:12:46.401Z,86.42
2022-08-29T22:15:34.853Z,86.64
2022-08-29T22:18:04.763Z,86.43
2022-08-29T22:20:33.877Z,85.57
2022-08-29T22:23:03.504Z,87.04
2022-08-29T22:25:32.363Z,88.37
2022-08-29T22:28:02.653Z,88.26
2022-08-29T22:30:33.878Z,87.11
2022-08-29T22:33:03.814Z,89.16
2022-08-29T22:35:33.620Z,86.85
2022-08-29T22:38:02.384Z,88.82
2022-08-29T22:40:31.733Z,89.54
2022-08-29T22:43:00.444Z,86.28
2022-08-29T22:45:29.126Z,87.90
2022-08-29T22:47:59.320Z,87.41
2022-08-29T22:50:28.338Z,90.11
2022-08-29T22:52:59.466Z,89.96
2022-08-29T22:57:56.537Z,88.39
2022-08-29T23:00:27.560Z,90.79
2022-08-29T23:02:57.881Z,92.08
2022-08-29T23:05:26.937Z,90.97
2022-08-29T23:07:56.064Z,92.20
2022-08-29T23:10:24.920Z,91.29
2022-08-29T23:12:53.759Z,91.85
2022-08-29T23:15:22.464Z,91.15
2022-08-29T23:17:51.334Z,92.05
2022-08-29T23:20:21.544Z,86.97
2022-08-29T23:22:50.431Z,91.86
2022-08-29T23:25:20.233Z,91.62
2022-08-29T23:27:48.904Z,92.56
2022-08-29T23:30:17.506Z,88.32
2022-08-29T23:32:46.312Z,86.04
2022-08-29T23:35:15.152Z,87.47
2022-08-29T23:37:45.164Z,90.12
2022-08-29T23:40:14.036Z,89.54
2022-08-29T23:42:42.760Z,89.41
2022-08-29T23:45:13.464Z,91.39
2022-08-29T23:47:42.493Z,92.97
2022-08-29T23:50:14.230Z,89.35
2022-08-29T23:52:46.100Z,87.42
2022-08-29T23:55:17.387Z,85.35
2022-08-29T23:57:46.612Z,86.85
